sensor_id;sensor_type;location;lat;lon;timestamp;pressure;altitude;pressure_sealevel;temperature;humidity
6216;BME280;3141;49.234;9.326;2022-09-09T00:00:25;99248.63;;;18.39;71.68
6216;BME280;3141;49.234;9.326;2022-09-09T00:02:23;99258.38;;;18.21;72.46
6216;BME280;3141;49.234;9.326;2022-09-09T00:03:16;99249.78;;;18.12;73.41
6216;BME280;3141;49.234;9.326;2022-09-09T00:04:16;99254.34;;;18.12;73.24
6216;BME280;3141;49.234;9.326;2022-09-09T00:07:25;99253.81;;;18.28;72.43
6216;BME280;3141;49.234;9.326;2022-09-09T00:08:26;99254.38;;;18.36;72.00
6216;BME280;3141;49.234;9.326;2022-09-09T00:09:16;99259.13;;;18.34;72.05
6216;BME280;3141;49.234;9.326;2022-09-09T00:10:09;99252.75;;;18.35;72.16
6216;BME280;3141;49.234;9.326;2022-09-09T00:10:59;99250.28;;;18.40;71.73
6216;BME280;3141;49.234;9.326;2022-09-09T00:12:06;99251.31;;;18.33;72.16
6216;BME280;3141;49.234;9.326;2022-09-09T00:13:52;99253.44;;;18.24;72.62
6216;BME280;3141;49.234;9.326;2022-09-09T00:15:25;99250.16;;;18.22;72.92
6216;BME280;3141;49.234;9.326;2022-09-09T00:16:15;99247.91;;;18.19;73.12
6216;BME280;3141;49.234;9.326;2022-09-09T00:17:04;99251.97;;;18.28;72.58
6216;BME280;3141;49.234;9.326;2022-09-09T00:18:05;99249.09;;;18.30;72.82
6216;BME280;3141;49.234;9.326;2022-09-09T00:20:03;99250.31;;;18.27;73.09
6216;BME280;3141;49.234;9.326;2022-09-09T00:20:58;99247.06;;;18.25;73.64
6216;BME280;3141;49.234;9.326;2022-09-09T00:23:08;99249.25;;;18.35;72.50
6216;BME280;3141;49.234;9.326;2022-09-09T00:23:54;99250.69;;;18.37;72.36
6216;BME280;3141;49.234;9.326;2022-09-09T00:24:49;99244.13;;;18.33;72.52
6216;BME280;3141;49.234;9.326;2022-09-09T00:25:37;99239.38;;;18.35;72.62
6216;BME280;3141;49.234;9.326;2022-09-09T00:27:46;99246.88;;;18.20;73.44
6216;BME280;3141;49.234;9.326;2022-09-09T00:28:30;99251.63;;;18.18;73.13
6216;BME280;3141;49.234;9.326;2022-09-09T00:29:35;99245.41;;;18.24;72.96
6216;BME280;3141;49.234;9.326;2022-09-09T00:30:30;99247.28;;;18.24;72.94
6216;BME280;3141;49.234;9.326;2022-09-09T00:31:16;99248.50;;;18.21;72.83
6216;BME280;3141;49.234;9.326;2022-09-09T00:32:12;99241.94;;;18.17;73.37
6216;BME280;3141;49.234;9.326;2022-09-09T00:33:00;99239.03;;;18.25;72.98
6216;BME280;3141;49.234;9.326;2022-09-09T00:33:43;99242.91;;;18.29;72.84
6216;BME280;3141;49.234;9.326;2022-09-09T00:34:26;99226.44;;;18.32;72.49
6216;BME280;3141;49.234;9.326;2022-09-09T00:35:22;99227.91;;;18.28;72.89
6216;BME280;3141;49.234;9.326;2022-09-09T00:36:12;99230.34;;;18.30;72.94
6216;BME280;3141;49.234;9.326;2022-09-09T00:36:56;99235.09;;;18.28;73.21
6216;BME280;3141;49.234;9.326;2022-09-09T00:37:38;99227.47;;;18.31;72.98
6216;BME280;3141;49.234;9.326;2022-09-09T00:38:31;99219.69;;;18.23;73.41
6216;BME280;3141;49.234;9.326;2022-09-09T00:39:30;99221.41;;;18.11;74.17
6216;BME280;3141;49.234;9.326;2022-09-09T00:40:32;99227.22;;;18.08;74.03
6216;BME280;3141;49.234;9.326;2022-09-09T00:42:19;99237.03;;;18.14;74.14
6216;BME280;3141;49.234;9.326;2022-09-09T00:47:53;99236.19;;;18.20;74.34
6216;BME280;3141;49.234;9.326;2022-09-09T00:49:47;99240.88;;;18.25;73.88
6216;BME280;3141;49.234;9.326;2022-09-09T00:50:46;99243.34;;;18.26;73.98
6216;BME280;3141;49.234;9.326;2022-09-09T00:51:42;99247.47;;;18.29;73.97
6216;BME280;3141;49.234;9.326;2022-09-09T00:55:16;99260.84;;;18.29;73.74
6216;BME280;3141;49.234;9.326;2022-09-09T00:57:22;99264.06;;;18.37;73.19
6216;BME280;3141;49.234;9.326;2022-09-09T00:58:08;99263.00;;;18.45;73.15
6216;BME280;3141;49.234;9.326;2022-09-09T01:00:36;99249.63;;;18.45;72.79
6216;BME280;3141;49.234;9.326;2022-09-09T01:01:23;99265.66;;;18.52;72.59
6216;BME280;3141;49.234;9.326;2022-09-09T01:02:18;99260.31;;;18.52;72.58
6216;BME280;3141;49.234;9.326;2022-09-09T01:04:13;99255.53;;;18.54;72.74
6216;BME280;3141;49.234;9.326;2022-09-09T01:05:05;99259.94;;;18.41;73.16
6216;BME280;3141;49.234;9.326;2022-09-09T01:07:18;99254.34;;;18.50;72.69
6216;BME280;3141;49.234;9.326;2022-09-09T01:08:03;99255.53;;;18.54;72.59
6216;BME280;3141;49.234;9.326;2022-09-09T01:09:00;99260.56;;;18.43;73.09
6216;BME280;3141;49.234;9.326;2022-09-09T01:09:51;99257.44;;;18.47;73.18
6216;BME280;3141;49.234;9.326;2022-09-09T01:10:44;99257.44;;;18.47;73.35
6216;BME280;3141;49.234;9.326;2022-09-09T01:11:38;99253.13;;;18.46;73.02
6216;BME280;3141;49.234;9.326;2022-09-09T01:12:30;99255.97;;;18.51;72.87
6216;BME280;3141;49.234;9.326;2022-09-09T01:13:23;99266.47;;;18.52;72.59
6216;BME280;3141;49.234;9.326;2022-09-09T01:15:27;99269.00;;;18.40;74.52
6216;BME280;3141;49.234;9.326;2022-09-09T01:16:11;99267.75;;;18.43;74.36
6216;BME280;3141;49.234;9.326;2022-09-09T01:16:57;99270.66;;;18.41;74.95
6216;BME280;3141;49.234;9.326;2022-09-09T01:17:58;99273.53;;;18.40;75.05
6216;BME280;3141;49.234;9.326;2022-09-09T01:18:46;99275.19;;;18.34;75.50
6216;BME280;3141;49.234;9.326;2022-09-09T01:20:31;99274.78;;;18.37;75.85
6216;BME280;3141;49.234;9.326;2022-09-09T01:22:03;99270.66;;;18.41;75.44
6216;BME280;3141;49.234;9.326;2022-09-09T01:24:13;99273.53;;;18.40;74.70
6216;BME280;3141;49.234;9.326;2022-09-09T01:26:21;99259.53;;;18.45;74.92
6216;BME280;3141;49.234;9.326;2022-09-09T01:27:05;99258.66;;;18.51;74.69
6216;BME280;3141;49.234;9.326;2022-09-09T01:27:49;99263.19;;;18.50;74.91
6216;BME280;3141;49.234;9.326;2022-09-09T01:28:34;99252.84;;;18.54;74.12
6216;BME280;3141;49.234;9.326;2022-09-09T01:29:21;99255.38;;;18.49;74.44
6216;BME280;3141;49.234;9.326;2022-09-09T01:30:09;99253.75;;;18.48;74.59
6216;BME280;3141;49.234;9.326;2022-09-09T01:30:52;99250.41;;;18.52;74.77
6216;BME280;3141;49.234;9.326;2022-09-09T01:32:03;99247.88;;;18.57;74.46
6216;BME280;3141;49.234;9.326;2022-09-09T01:32:47;99245.03;;;18.52;75.04
6216;BME280;3141;49.234;9.326;2022-09-09T01:33:30;99246.34;;;18.43;75.54
6216;BME280;3141;49.234;9.326;2022-09-09T01:34:14;99245.53;;;18.42;75.51
6216;BME280;3141;49.234;9.326;2022-09-09T01:34:57;99251.66;;;18.50;75.09
6216;BME280;3141;49.234;9.326;2022-09-09T01:35:51;99243.59;;;18.56;74.68
6216;BME280;3141;49.234;9.326;2022-09-09T01:36:43;99251.41;;;18.58;74.38
6216;BME280;3141;49.234;9.326;2022-09-09T01:37:27;99246.47;;;18.55;74.62
6216;BME280;3141;49.234;9.326;2022-09-09T01:38:09;99243.19;;;18.53;74.66
6216;BME280;3141;49.234;9.326;2022-09-09T01:38:53;99252.84;;;18.54;74.64
6216;BME280;3141;49.234;9.326;2022-09-09T01:39:37;99253.75;;;18.48;74.67
6216;BME280;3141;49.234;9.326;2022-09-09T01:40:21;99244.03;;;18.53;74.95
6216;BME280;3141;49.234;9.326;2022-09-09T01:41:04;99243.13;;;18.59;74.27
6216;BME280;3141;49.234;9.326;2022-09-09T01:41:46;99249.94;;;18.62;74.09
6216;BME280;3141;49.234;9.326;2022-09-09T01:42:28;99244.59;;;18.62;73.97
6216;BME280;3141;49.234;9.326;2022-09-09T01:43:11;99251.13;;;18.66;73.73
6216;BME280;3141;49.234;9.326;2022-09-09T01:43:55;99252.38;;;18.63;74.08
6216;BME280;3141;49.234;9.326;2022-09-09T01:44:37;99251.94;;;18.66;73.88
6216;BME280;3141;49.234;9.326;2022-09-09T01:45:21;99250.72;;;18.62;73.84
6216;BME280;3141;49.234;9.326;2022-09-09T01:46:04;99244.41;;;18.57;74.13
6216;BME280;3141;49.234;9.326;2022-09-09T01:46:46;99244.41;;;18.57;74.24
6216;BME280;3141;49.234;9.326;2022-09-09T01:47:29;99246.88;;;18.58;74.38
6216;BME280;3141;49.234;9.326;2022-09-09T01:48:11;99251.41;;;18.58;74.72
6216;BME280;3141;49.234;9.326;2022-09-09T01:48:55;99246.03;;;18.58;74.77
6216;BME280;3141;49.234;9.326;2022-09-09T01:49:38;99253.41;;;18.62;74.53
6216;BME280;3141;49.234;9.326;2022-09-09T01:50:20;99252.34;;;18.70;74.16
6216;BME280;3141;49.234;9.326;2022-09-09T01:51:03;99246.53;;;18.73;73.88
6216;BME280;3141;49.234;9.326;2022-09-09T01:51:49;99257.69;;;18.70;73.89
6216;BME280;3141;49.234;9.326;2022-09-09T01:52:33;99254.19;;;18.69;73.68
6216;BME280;3141;49.234;9.326;2022-09-09T01:53:19;99253.16;;;18.70;73.10
6216;BME280;3141;49.234;9.326;2022-09-09T01:54:03;99251.88;;;18.73;73.25
6216;BME280;3141;49.234;9.326;2022-09-09T01:54:46;99255.16;;;18.75;73.28
6216;BME280;3141;49.234;9.326;2022-09-09T01:55:40;99252.72;;;18.73;73.33
6216;BME280;3141;49.234;9.326;2022-09-09T01:56:54;99255.22;;;18.68;73.42
6216;BME280;3141;49.234;9.326;2022-09-09T01:57:51;99257.47;;;18.71;73.49
6216;BME280;3141;49.234;9.326;2022-09-09T01:59:46;99265.88;;;18.75;73.31
6216;BME280;3141;49.234;9.326;2022-09-09T02:00:33;99259.31;;;18.71;73.47
6216;BME280;3141;49.234;9.326;2022-09-09T02:03:36;99261.03;;;18.65;73.97
6216;BME280;3141;49.234;9.326;2022-09-09T02:04:32;99263.09;;;18.63;74.32
6216;BME280;3141;49.234;9.326;2022-09-09T02:06:35;99263.56;;;18.54;75.72
6216;BME280;3141;49.234;9.326;2022-09-09T02:08:24;99257.81;;;18.57;76.07
6216;BME280;3141;49.234;9.326;2022-09-09T02:09:11;99255.97;;;18.51;76.40
6216;BME280;3141;49.234;9.326;2022-09-09T02:10:24;99255.75;;;18.52;76.50
6216;BME280;3141;49.234;9.326;2022-09-09T02:11:19;99255.38;;;18.49;76.64
6216;BME280;3141;49.234;9.326;2022-09-09T02:12:09;99255.97;;;18.51;76.55
6216;BME280;3141;49.234;9.326;2022-09-09T02:13:04;99248.34;;;18.54;75.87
6216;BME280;3141;49.234;9.326;2022-09-09T02:13:50;99255.75;;;18.52;76.18
6216;BME280;3141;49.234;9.326;2022-09-09T02:14:40;99249.59;;;18.52;76.16
6216;BME280;3141;49.234;9.326;2022-09-09T02:16:36;99255.13;;;18.57;75.96
6216;BME280;3141;49.234;9.326;2022-09-09T02:17:28;99245.22;;;18.57;76.07
6216;BME280;3141;49.234;9.326;2022-09-09T02:18:13;99251.41;;;18.58;76.38
6216;BME280;3141;49.234;9.326;2022-09-09T02:19:11;99248.72;;;18.58;75.89
6216;BME280;3141;49.234;9.326;2022-09-09T02:20:03;99250.94;;;18.61;75.89
6216;BME280;3141;49.234;9.326;2022-09-09T02:20:47;99247.66;;;18.59;76.12
6216;BME280;3141;49.234;9.326;2022-09-09T02:21:31;99253.03;;;18.59;76.08
6216;BME280;3141;49.234;9.326;2022-09-09T02:22:16;99249.78;;;18.57;75.91
6216;BME280;3141;49.234;9.326;2022-09-09T02:23:00;99253.03;;;18.59;75.62
6216;BME280;3141;49.234;9.326;2022-09-09T02:23:47;99261.50;;;18.56;75.92
6216;BME280;3141;49.234;9.326;2022-09-09T02:24:34;99254.94;;;18.52;76.28
6216;BME280;3141;49.234;9.326;2022-09-09T02:25:21;99260.47;;;18.57;75.74
6216;BME280;3141;49.234;9.326;2022-09-09T02:26:04;99255.31;;;18.55;75.94
6216;BME280;3141;49.234;9.326;2022-09-09T02:26:49;99252.44;;;18.57;76.17
6216;BME280;3141;49.234;9.326;2022-09-09T02:27:34;99256.09;;;18.62;75.79
6216;BME280;3141;49.234;9.326;2022-09-09T02:28:18;99253.63;;;18.61;75.90
6216;BME280;3141;49.234;9.326;2022-09-09T02:29:05;99254.84;;;18.65;75.66
6216;BME280;3141;49.234;9.326;2022-09-09T02:29:49;99259.31;;;18.71;75.42
6216;BME280;3141;49.234;9.326;2022-09-09T02:30:34;99254.56;;;18.73;75.26
6216;BME280;3141;49.234;9.326;2022-09-09T02:31:20;99260.19;;;18.65;75.46
6216;BME280;3141;49.234;9.326;2022-09-09T02:32:08;99255.50;;;18.60;75.79
6216;BME280;3141;49.234;9.326;2022-09-09T02:32:52;99258.81;;;18.56;76.19
6216;BME280;3141;49.234;9.326;2022-09-09T02:33:42;99247.13;;;18.50;76.94
6216;BME280;3141;49.234;9.326;2022-09-09T02:34:26;99249.59;;;18.52;76.81
6216;BME280;3141;49.234;9.326;2022-09-09T02:35:14;99249.97;;;18.55;76.82
6216;BME280;3141;49.234;9.326;2022-09-09T02:35:57;99256.81;;;18.51;77.32
6216;BME280;3141;49.234;9.326;2022-09-09T02:36:46;99250.00;;;18.49;77.52
6216;BME280;3141;49.234;9.326;2022-09-09T02:37:37;99254.75;;;18.53;77.43
6216;BME280;3141;49.234;9.326;2022-09-09T02:38:21;99256.59;;;18.53;77.17
6216;BME280;3141;49.234;9.326;2022-09-09T02:39:08;99251.66;;;18.50;77.52
6216;BME280;3141;49.234;9.326;2022-09-09T02:39:52;99254.94;;;18.52;77.44
6216;BME280;3141;49.234;9.326;2022-09-09T02:40:34;99247.66;;;18.59;77.25
6216;BME280;3141;49.234;9.326;2022-09-09T02:41:24;99244.41;;;18.57;77.45
6216;BME280;3141;49.234;9.326;2022-09-09T02:42:08;99245.66;;;18.54;77.52
6216;BME280;3141;49.234;9.326;2022-09-09T02:42:50;99246.94;;;18.52;77.62
6216;BME280;3141;49.234;9.326;2022-09-09T02:43:34;99243.19;;;18.53;77.84
6216;BME280;3141;49.234;9.326;2022-09-09T02:44:17;99236.47;;;18.43;78.31
6216;BME280;3141;49.234;9.326;2022-09-09T02:45:00;99232.31;;;18.48;78.67
6216;BME280;3141;49.234;9.326;2022-09-09T02:45:51;99241.81;;;18.43;78.98
6216;BME280;3141;49.234;9.326;2022-09-09T02:48:00;99234.47;;;18.32;80.37
6216;BME280;3141;49.234;9.326;2022-09-09T02:48:59;99217.25;;;18.22;80.57
6216;BME280;3141;49.234;9.326;2022-09-09T02:50:19;99219.69;;;18.23;81.78
6216;BME280;3141;49.234;9.326;2022-09-09T02:51:19;99218.91;;;18.16;81.60
6216;BME280;3141;49.234;9.326;2022-09-09T02:52:08;99227.97;;;18.15;82.52
6216;BME280;3141;49.234;9.326;2022-09-09T02:53:17;99224.66;;;18.20;82.07
6216;BME280;3141;49.234;9.326;2022-09-09T02:54:53;99232.34;;;18.03;82.00
6216;BME280;3141;49.234;9.326;2022-09-09T02:56:30;99240.38;;;18.03;82.62
6216;BME280;3141;49.234;9.326;2022-09-09T02:57:19;99243.84;;;18.10;82.14
6216;BME280;3141;49.234;9.326;2022-09-09T02:58:05;99243.59;;;18.18;81.97
6216;BME280;3141;49.234;9.326;2022-09-09T02:58:49;99250.59;;;18.19;82.16
6216;BME280;3141;49.234;9.326;2022-09-09T02:59:33;99249.75;;;18.19;81.71
6216;BME280;3141;49.234;9.326;2022-09-09T03:00:22;99254.31;;;18.18;82.87
6216;BME280;3141;49.234;9.326;2022-09-09T03:01:06;99251.47;;;18.13;82.66
6216;BME280;3141;49.234;9.326;2022-09-09T03:01:48;99256.97;;;18.18;82.95
6216;BME280;3141;49.234;9.326;2022-09-09T03:02:31;99250.59;;;18.19;83.10
6216;BME280;3141;49.234;9.326;2022-09-09T03:03:13;99244.38;;;18.25;83.63
6216;BME280;3141;49.234;9.326;2022-09-09T03:03:58;99238.22;;;18.25;82.67
6216;BME280;3141;49.234;9.326;2022-09-09T03:04:40;99238.59;;;18.28;82.10
6216;BME280;3141;49.234;9.326;2022-09-09T03:05:26;99230.75;;;18.33;81.99
6216;BME280;3141;49.234;9.326;2022-09-09T03:06:10;99226.00;;;18.35;81.69
6216;BME280;3141;49.234;9.326;2022-09-09T03:06:53;99223.31;;;18.35;82.30
6216;BME280;3141;49.234;9.326;2022-09-09T03:07:36;99227.63;;;18.36;82.41
6216;BME280;3141;49.234;9.326;2022-09-09T03:08:18;99228.66;;;18.35;82.89
6216;BME280;3141;49.234;9.326;2022-09-09T03:09:01;99225.66;;;18.25;83.68
6216;BME280;3141;49.234;9.326;2022-09-09T03:09:44;99241.50;;;18.27;83.86
6216;BME280;3141;49.234;9.326;2022-09-09T03:10:27;99236.94;;;18.27;84.76
6216;BME280;3141;49.234;9.326;2022-09-09T03:11:09;99246.09;;;18.13;84.61
6216;BME280;3141;49.234;9.326;2022-09-09T03:11:52;99249.97;;;18.17;84.90
6216;BME280;3141;49.234;9.326;2022-09-09T03:12:34;99247.72;;;18.14;84.93
6216;BME280;3141;49.234;9.326;2022-09-09T03:13:16;99250.63;;;18.13;85.02
6216;BME280;3141;49.234;9.326;2022-09-09T03:14:02;99243.84;;;18.10;86.24
6216;BME280;3141;49.234;9.326;2022-09-09T03:14:44;99235.41;;;18.13;86.11
6216;BME280;3141;49.234;9.326;2022-09-09T03:15:27;99235.13;;;18.21;85.30
6216;BME280;3141;49.234;9.326;2022-09-09T03:16:12;99227.91;;;18.28;84.65
6216;BME280;3141;49.234;9.326;2022-09-09T03:16:54;99234.47;;;18.32;84.59
6216;BME280;3141;49.234;9.326;2022-09-09T03:17:38;99230.75;;;18.33;84.73
6216;BME280;3141;49.234;9.326;2022-09-09T03:18:20;99235.66;;;18.36;84.33
6216;BME280;3141;49.234;9.326;2022-09-09T03:19:03;99242.66;;;18.37;83.55
6216;BME280;3141;49.234;9.326;2022-09-09T03:19:45;99241.44;;;18.33;83.30
6216;BME280;3141;49.234;9.326;2022-09-09T03:20:29;99241.50;;;18.27;83.63
6216;BME280;3141;49.234;9.326;2022-09-09T03:21:11;99237.38;;;18.24;83.85
6216;BME280;3141;49.234;9.326;2022-09-09T03:21:53;99234.69;;;18.24;83.84
6216;BME280;3141;49.234;9.326;2022-09-09T03:22:36;99228.75;;;18.22;83.95
6216;BME280;3141;49.234;9.326;2022-09-09T03:23:18;99227.50;;;18.25;83.61
6216;BME280;3141;49.234;9.326;2022-09-09T03:24:01;99231.63;;;18.21;83.57
6216;BME280;3141;49.234;9.326;2022-09-09T03:24:45;99229.56;;;18.23;83.54
6216;BME280;3141;49.234;9.326;2022-09-09T03:25:28;99230.19;;;18.25;83.65
6216;BME280;3141;49.234;9.326;2022-09-09T03:26:11;99230.56;;;18.28;83.61
6216;BME280;3141;49.234;9.326;2022-09-09T03:26:53;99229.97;;;18.26;84.44
6216;BME280;3141;49.234;9.326;2022-09-09T03:27:37;99224.22;;;18.23;83.58
6216;BME280;3141;49.234;9.326;2022-09-09T03:28:20;99228.75;;;18.22;83.60
6216;BME280;3141;49.234;9.326;2022-09-09T03:29:03;99227.13;;;18.21;83.70
6216;BME280;3141;49.234;9.326;2022-09-09T03:29:48;99226.72;;;18.18;84.09
6216;BME280;3141;49.234;9.326;2022-09-09T03:30:33;99225.50;;;18.20;84.52
6216;BME280;3141;49.234;9.326;2022-09-09T03:31:15;99221.59;;;18.16;84.77
6216;BME280;3141;49.234;9.326;2022-09-09T03:31:57;99229.44;;;18.11;85.02
6216;BME280;3141;49.234;9.326;2022-09-09T03:32:40;99230.06;;;18.13;84.70
6216;BME280;3141;49.234;9.326;2022-09-09T03:33:22;99233.31;;;18.15;84.64
6216;BME280;3141;49.234;9.326;2022-09-09T03:34:04;99230.44;;;18.17;85.55
6216;BME280;3141;49.234;9.326;2022-09-09T03:34:48;99227.13;;;18.21;84.79
6216;BME280;3141;49.234;9.326;2022-09-09T03:35:31;99225.50;;;18.20;84.82
6216;BME280;3141;49.234;9.326;2022-09-09T03:36:14;99225.28;;;18.15;85.39
6216;BME280;3141;49.234;9.326;2022-09-09T03:36:57;99227.97;;;18.15;85.34
6216;BME280;3141;49.234;9.326;2022-09-09T03:37:39;99225.94;;;18.11;86.23
6216;BME280;3141;49.234;9.326;2022-09-09T03:38:23;99236.41;;;18.12;86.00
6216;BME280;3141;49.234;9.326;2022-09-09T03:39:05;99228.41;;;18.12;85.95
6216;BME280;3141;49.234;9.326;2022-09-09T03:39:48;99231.69;;;18.14;85.50
6216;BME280;3141;49.234;9.326;2022-09-09T03:40:30;99231.25;;;18.17;85.21
6216;BME280;3141;49.234;9.326;2022-09-09T03:41:13;99231.25;;;18.17;85.47
6216;BME280;3141;49.234;9.326;2022-09-09T03:41:55;99237.19;;;18.19;85.54
6216;BME280;3141;49.234;9.326;2022-09-09T03:42:38;99239.06;;;18.19;85.29
6216;BME280;3141;49.234;9.326;2022-09-09T03:43:21;99247.72;;;18.14;85.07
6216;BME280;3141;49.234;9.326;2022-09-09T03:44:04;99240.16;;;18.11;85.79
6216;BME280;3141;49.234;9.326;2022-09-09T03:44:47;99241.41;;;18.02;86.36
6216;BME280;3141;49.234;9.326;2022-09-09T03:45:31;99230.09;;;18.00;87.09
6216;BME280;3141;49.234;9.326;2022-09-09T03:46:14;99236.91;;;18.03;86.64
6216;BME280;3141;49.234;9.326;2022-09-09T03:46:57;99230.94;;;18.01;86.76
6216;BME280;3141;49.234;9.326;2022-09-09T03:47:42;99230.94;;;18.01;87.06
6216;BME280;3141;49.234;9.326;2022-09-09T03:48:25;99227.88;;;17.97;87.58
6216;BME280;3141;49.234;9.326;2022-09-09T03:49:09;99233.84;;;17.99;87.23
6216;BME280;3141;49.234;9.326;2022-09-09T03:49:52;99226.25;;;17.96;86.73
6216;BME280;3141;49.234;9.326;2022-09-09T03:50:34;99220.91;;;17.90;86.90
6216;BME280;3141;49.234;9.326;2022-09-09T03:51:16;99228.53;;;17.86;87.83
6216;BME280;3141;49.234;9.326;2022-09-09T03:51:59;99222.78;;;17.83;88.27
6216;BME280;3141;49.234;9.326;2022-09-09T03:52:43;99221.94;;;17.89;88.01
6216;BME280;3141;49.234;9.326;2022-09-09T03:53:25;99235.09;;;17.90;87.72
6216;BME280;3141;49.234;9.326;2022-09-09T03:54:08;99231.59;;;17.90;88.09
6216;BME280;3141;49.234;9.326;2022-09-09T03:54:53;99228.13;;;17.89;88.72
6216;BME280;3141;49.234;9.326;2022-09-09T03:55:35;99226.91;;;17.85;88.70
6216;BME280;3141;49.234;9.326;2022-09-09T03:56:18;99231.22;;;17.86;88.38
6216;BME280;3141;49.234;9.326;2022-09-09T03:57:00;99232.81;;;17.94;87.98
6216;BME280;3141;49.234;9.326;2022-09-09T03:57:42;99230.53;;;17.97;87.62
6216;BME280;3141;49.234;9.326;2022-09-09T03:58:26;99231.16;;;17.99;87.65
6216;BME280;3141;49.234;9.326;2022-09-09T03:59:11;99220.84;;;18.03;87.23
6216;BME280;3141;49.234;9.326;2022-09-09T03:59:53;99223.31;;;18.04;87.19
6216;BME280;3141;49.234;9.326;2022-09-09T04:00:36;99227.59;;;18.12;86.77
6216;BME280;3141;49.234;9.326;2022-09-09T04:01:18;99229.84;;;18.15;86.44
6216;BME280;3141;49.234;9.326;2022-09-09T04:02:01;99227.97;;;18.15;86.52
6216;BME280;3141;49.234;9.326;2022-09-09T04:02:44;99231.69;;;18.14;87.04
6216;BME280;3141;49.234;9.326;2022-09-09T04:03:27;99227.78;;;18.10;86.57
6216;BME280;3141;49.234;9.326;2022-09-09T04:04:10;99223.09;;;18.06;86.64
6216;BME280;3141;49.234;9.326;2022-09-09T04:04:54;99225.75;;;18.06;86.68
6216;BME280;3141;49.234;9.326;2022-09-09T04:05:36;99232.97;;;18.05;86.85
6216;BME280;3141;49.234;9.326;2022-09-09T04:06:21;99234.63;;;18.06;87.20
6216;BME280;3141;49.234;9.326;2022-09-09T04:07:04;99232.00;;;18.00;87.82
6216;BME280;3141;49.234;9.326;2022-09-09T04:07:48;99235.06;;;17.97;88.29
6216;BME280;3141;49.234;9.326;2022-09-09T04:08:31;99231.78;;;18.01;88.28
6216;BME280;3141;49.234;9.326;2022-09-09T04:09:14;99234.84;;;18.05;88.15
6216;BME280;3141;49.234;9.326;2022-09-09T04:09:56;99228.44;;;18.06;87.74
6216;BME280;3141;49.234;9.326;2022-09-09T04:10:39;99228.00;;;18.09;87.19
6216;BME280;3141;49.234;9.326;2022-09-09T04:11:21;99225.31;;;18.09;87.09
6216;BME280;3141;49.234;9.326;2022-09-09T04:12:04;99230.91;;;18.07;87.31
6216;BME280;3141;49.234;9.326;2022-09-09T04:12:46;99227.59;;;18.05;88.05
6216;BME280;3141;49.234;9.326;2022-09-09T04:13:29;99225.53;;;18.07;88.03
6216;BME280;3141;49.234;9.326;2022-09-09T04:14:12;99223.31;;;18.04;88.82
6216;BME280;3141;49.234;9.326;2022-09-09T04:14:55;99225.53;;;18.07;88.96
6216;BME280;3141;49.234;9.326;2022-09-09T04:15:37;99220.59;;;18.11;88.93
6216;BME280;3141;49.234;9.326;2022-09-09T04:16:19;99227.97;;;18.15;89.04
6216;BME280;3141;49.234;9.326;2022-09-09T04:17:02;99235.41;;;18.13;89.11
6216;BME280;3141;49.234;9.326;2022-09-09T04:17:48;99233.69;;;18.19;87.59
6216;BME280;3141;49.234;9.326;2022-09-09T04:18:30;99240.72;;;18.20;87.46
6216;BME280;3141;49.234;9.326;2022-09-09T04:19:13;99242.72;;;18.24;87.09
6216;BME280;3141;49.234;9.326;2022-09-09T04:19:56;99247.06;;;18.19;87.01
6216;BME280;3141;49.234;9.326;2022-09-09T04:20:39;99246.91;;;18.14;87.73
6216;BME280;3141;49.234;9.326;2022-09-09T04:21:21;99254.34;;;18.12;87.91
6216;BME280;3141;49.234;9.326;2022-09-09T04:22:03;99251.03;;;18.16;87.75
6216;BME280;3141;49.234;9.326;2022-09-09T04:22:46;99257.38;;;18.15;87.89
6216;BME280;3141;49.234;9.326;2022-09-09T04:23:28;99253.09;;;18.14;88.09
6216;BME280;3141;49.234;9.326;2022-09-09T04:24:11;99254.72;;;18.15;87.81
6216;BME280;3141;49.234;9.326;2022-09-09T04:24:53;99264.19;;;18.18;87.91
6216;BME280;3141;49.234;9.326;2022-09-09T04:25:36;99259.84;;;18.23;87.50
6216;BME280;3141;49.234;9.326;2022-09-09T04:26:18;99260.06;;;18.22;87.36
6216;BME280;3141;49.234;9.326;2022-09-09T04:27:00;99260.84;;;18.22;87.76
6216;BME280;3141;49.234;9.326;2022-09-09T04:27:43;99257.16;;;18.23;87.82
6216;BME280;3141;49.234;9.326;2022-09-09T04:28:28;99258.78;;;18.24;87.34
6216;BME280;3141;49.234;9.326;2022-09-09T04:29:11;99254.69;;;18.22;87.83
6216;BME280;3141;49.234;9.326;2022-09-09T04:29:53;99260.00;;;18.28;87.30
6216;BME280;3141;49.234;9.326;2022-09-09T04:30:35;99256.28;;;18.29;86.38
6216;BME280;3141;49.234;9.326;2022-09-09T04:31:22;99251.75;;;18.30;86.73
6216;BME280;3141;49.234;9.326;2022-09-09T04:32:05;99260.84;;;18.29;87.30
6216;BME280;3141;49.234;9.326;2022-09-09T04:32:47;99260.84;;;18.29;87.75
6216;BME280;3141;49.234;9.326;2022-09-09T04:33:30;99261.41;;;18.31;87.62
6216;BME280;3141;49.234;9.326;2022-09-09T04:34:13;99262.84;;;18.33;87.03
6216;BME280;3141;49.234;9.326;2022-09-09T04:34:56;99263.91;;;18.32;87.51
6216;BME280;3141;49.234;9.326;2022-09-09T04:35:38;99261.63;;;18.29;86.55
6216;BME280;3141;49.234;9.326;2022-09-09T04:36:21;99256.88;;;18.31;86.49
6216;BME280;3141;49.234;9.326;2022-09-09T04:37:04;99266.34;;;18.34;86.75
6216;BME280;3141;49.234;9.326;2022-09-09T04:37:46;99250.91;;;18.36;86.98
6216;BME280;3141;49.234;9.326;2022-09-09T04:38:28;99261.63;;;18.36;86.45
6216;BME280;3141;49.234;9.326;2022-09-09T04:39:11;99256.44;;;18.34;86.52
6216;BME280;3141;49.234;9.326;2022-09-09T04:39:53;99257.50;;;18.33;86.32
6216;BME280;3141;49.234;9.326;2022-09-09T04:40:35;99261.63;;;18.29;87.39
6216;BME280;3141;49.234;9.326;2022-09-09T04:41:18;99259.19;;;18.28;86.55
6216;BME280;3141;49.234;9.326;2022-09-09T04:42:00;99259.34;;;18.33;86.46
6216;BME280;3141;49.234;9.326;2022-09-09T04:42:42;99257.06;;;18.36;86.53
6216;BME280;3141;49.234;9.326;2022-09-09T04:43:26;99257.06;;;18.36;86.67
6216;BME280;3141;49.234;9.326;2022-09-09T04:44:12;99255.25;;;18.30;87.16
6216;BME280;3141;49.234;9.326;2022-09-09T04:44:55;99265.53;;;18.33;86.75
6216;BME280;3141;49.234;9.326;2022-09-09T04:45:37;99262.84;;;18.33;86.60
6216;BME280;3141;49.234;9.326;2022-09-09T04:46:21;99252.97;;;18.34;87.00
6216;BME280;3141;49.234;9.326;2022-09-09T04:47:04;99254.03;;;18.26;87.00
6216;BME280;3141;49.234;9.326;2022-09-09T04:47:47;99257.09;;;18.30;86.87
6216;BME280;3141;49.234;9.326;2022-09-09T04:48:29;99263.28;;;18.30;87.32
6216;BME280;3141;49.234;9.326;2022-09-09T04:49:13;99257.09;;;18.30;87.78
6216;BME280;3141;49.234;9.326;2022-09-09T04:49:55;99264.09;;;18.31;87.45
6216;BME280;3141;49.234;9.326;2022-09-09T04:50:38;99268.88;;;18.22;87.32